sensor_id;sensor_type;location;lat;lon;timestamp;temperature;humidity
56137;DHT22;42008;52.934;5.884;2023-07-13T00:02:07;19.40;99.90
56137;DHT22;42008;52.934;5.884;2023-07-13T00:04:34;19.30;99.90
56137;DHT22;42008;52.934;5.884;2023-07-13T00:06:59;19.30;99.90
56137;DHT22;42008;52.934;5.884;2023-07-13T00:09:25;19.10;99.90
56137;DHT22;42008;52.934;5.884;2023-07-13T00:11:53;19.20;99.90
56137;DHT22;42008;52.934;5.884;2023-07-13T00:14:20;19.40;99.90
56137;DHT22;42008;52.934;5.884;2023-07-13T00:16:46;19.00;99.90
56137;DHT22;42008;52.934;5.884;2023-07-13T00:19:12;19.20;99.90
56137;DHT22;42008;52.934;5.884;2023-07-13T00:21:40;18.00;99.90
56137;DHT22;42008;52.934;5.884;2023-07-13T00:24:07;19.00;99.90
56137;DHT22;42008;52.934;5.884;2023-07-13T00:26:33;19.40;99.90
56137;DHT22;42008;52.934;5.884;2023-07-13T00:28:59;18.00;13.60
56137;DHT22;42008;52.934;5.884;2023-07-13T00:31:25;19.30;99.90
56137;DHT22;42008;52.934;5.884;2023-07-13T00:33:51;19.50;1.00
56137;DHT22;42008;52.934;5.884;2023-07-13T00:36:17;19.00;99.90
56137;DHT22;42008;52.934;5.884;2023-07-13T00:38:43;19.50;99.90
56137;DHT22;42008;52.934;5.884;2023-07-13T00:41:10;17.90;99.90
56137;DHT22;42008;52.934;5.884;2023-07-13T00:43:35;18.10;99.90
56137;DHT22;42008;52.934;5.884;2023-07-13T00:48:32;19.30;99.90
56137;DHT22;42008;52.934;5.884;2023-07-13T00:51:00;19.40;99.90
56137;DHT22;42008;52.934;5.884;2023-07-13T00:53:28;19.40;99.90
56137;DHT22;42008;52.934;5.884;2023-07-13T00:55:55;17.80;99.90
56137;DHT22;42008;52.934;5.884;2023-07-13T00:58:23;19.30;99.90
56137;DHT22;42008;52.934;5.884;2023-07-13T01:00:50;17.80;99.90
56137;DHT22;42008;52.934;5.884;2023-07-13T01:03:16;17.80;99.90
56137;DHT22;42008;52.934;5.884;2023-07-13T01:05:42;19.00;1.00
56137;DHT22;42008;52.934;5.884;2023-07-13T01:08:09;17.80;1.00
56137;DHT22;42008;52.934;5.884;2023-07-13T01:10:35;18.80;99.90
56137;DHT22;42008;52.934;5.884;2023-07-13T01:13:10;18.90;99.90
56137;DHT22;42008;52.934;5.884;2023-07-13T01:15:42;19.20;99.90
56137;DHT22;42008;52.934;5.884;2023-07-13T01:18:10;17.70;99.90
56137;DHT22;42008;52.934;5.884;2023-07-13T01:20:37;19.30;99.90
56137;DHT22;42008;52.934;5.884;2023-07-13T01:23:07;19.30;99.90
56137;DHT22;42008;52.934;5.884;2023-07-13T01:25:36;17.50;99.90
56137;DHT22;42008;52.934;5.884;2023-07-13T01:28:03;19.40;99.90
56137;DHT22;42008;52.934;5.884;2023-07-13T01:30:29;17.70;99.90
56137;DHT22;42008;52.934;5.884;2023-07-13T01:32:55;18.80;99.90
56137;DHT22;42008;52.934;5.884;2023-07-13T01:35:21;19.20;99.90
56137;DHT22;42008;52.934;5.884;2023-07-13T01:37:46;17.60;99.90
56137;DHT22;42008;52.934;5.884;2023-07-13T01:40:13;17.60;99.90
56137;DHT22;42008;52.934;5.884;2023-07-13T01:42:39;17.60;99.90
56137;DHT22;42008;52.934;5.884;2023-07-13T01:45:06;17.70;99.90
56137;DHT22;42008;52.934;5.884;2023-07-13T01:47:31;17.60;99.90
56137;DHT22;42008;52.934;5.884;2023-07-13T01:49:57;19.10;99.90
56137;DHT22;42008;52.934;5.884;2023-07-13T01:52:23;17.80;99.90
56137;DHT22;42008;52.934;5.884;2023-07-13T01:54:49;17.70;99.90
56137;DHT22;42008;52.934;5.884;2023-07-13T01:57:15;17.60;99.90
56137;DHT22;42008;52.934;5.884;2023-07-13T01:59:40;19.20;99.90
56137;DHT22;42008;52.934;5.884;2023-07-13T02:02:06;19.40;99.90
56137;DHT22;42008;52.934;5.884;2023-07-13T02:04:33;17.80;99.90
56137;DHT22;42008;52.934;5.884;2023-07-13T02:06:58;17.60;99.90
56137;DHT22;42008;52.934;5.884;2023-07-13T02:09:24;17.60;99.90
56137;DHT22;42008;52.934;5.884;2023-07-13T02:11:50;17.80;99.90
56137;DHT22;42008;52.934;5.884;2023-07-13T02:14:16;19.00;99.90
56137;DHT22;42008;52.934;5.884;2023-07-13T02:16:42;17.60;99.90
56137;DHT22;42008;52.934;5.884;2023-07-13T02:19:08;17.60;99.90
56137;DHT22;42008;52.934;5.884;2023-07-13T02:21:34;18.90;99.90
56137;DHT22;42008;52.934;5.884;2023-07-13T02:24:00;19.20;99.90
56137;DHT22;42008;52.934;5.884;2023-07-13T02:26:26;19.20;99.90
56137;DHT22;42008;52.934;5.884;2023-07-13T02:28:52;17.70;99.90
56137;DHT22;42008;52.934;5.884;2023-07-13T02:31:18;19.00;99.90
56137;DHT22;42008;52.934;5.884;2023-07-13T02:33:44;17.70;99.90
56137;DHT22;42008;52.934;5.884;2023-07-13T02:36:10;17.70;99.90
56137;DHT22;42008;52.934;5.884;2023-07-13T02:38:36;19.10;99.90
56137;DHT22;42008;52.934;5.884;2023-07-13T02:41:04;19.20;99.90
56137;DHT22;42008;52.934;5.884;2023-07-13T02:43:30;18.00;99.90
56137;DHT22;42008;52.934;5.884;2023-07-13T02:45:55;19.20;99.90
56137;DHT22;42008;52.934;5.884;2023-07-13T02:48:21;17.80;99.90
56137;DHT22;42008;52.934;5.884;2023-07-13T02:50:47;19.20;99.90
56137;DHT22;42008;52.934;5.884;2023-07-13T02:53:13;19.30;99.90
56137;DHT22;42008;52.934;5.884;2023-07-13T02:55:38;17.70;99.90
56137;DHT22;42008;52.934;5.884;2023-07-13T02:58:07;17.70;99.90
56137;DHT22;42008;52.934;5.884;2023-07-13T03:00:32;19.30;99.90
56137;DHT22;42008;52.934;5.884;2023-07-13T03:02:58;17.70;99.90
56137;DHT22;42008;52.934;5.884;2023-07-13T03:05:24;19.20;99.90
56137;DHT22;42008;52.934;5.884;2023-07-13T03:07:50;19.50;99.90
56137;DHT22;42008;52.934;5.884;2023-07-13T03:10:15;19.30;99.90
56137;DHT22;42008;52.934;5.884;2023-07-13T03:12:42;17.60;99.90
56137;DHT22;42008;52.934;5.884;2023-07-13T03:15:07;17.80;99.90
56137;DHT22;42008;52.934;5.884;2023-07-13T03:17:33;17.70;99.90
56137;DHT22;42008;52.934;5.884;2023-07-13T03:19:59;19.00;99.90
56137;DHT22;42008;52.934;5.884;2023-07-13T03:22:24;17.70;99.90
56137;DHT22;42008;52.934;5.884;2023-07-13T03:24:50;17.30;99.90
56137;DHT22;42008;52.934;5.884;2023-07-13T03:27:17;17.50;99.90
56137;DHT22;42008;52.934;5.884;2023-07-13T03:29:42;17.60;99.90
56137;DHT22;42008;52.934;5.884;2023-07-13T03:32:08;17.50;99.90
56137;DHT22;42008;52.934;5.884;2023-07-13T03:34:34;17.30;99.90
56137;DHT22;42008;52.934;5.884;2023-07-13T03:36:59;17.70;99.90
56137;DHT22;42008;52.934;5.884;2023-07-13T03:39:25;17.70;99.90
56137;DHT22;42008;52.934;5.884;2023-07-13T03:41:51;17.30;99.90
56137;DHT22;42008;52.934;5.884;2023-07-13T03:44:17;17.60;99.90
56137;DHT22;42008;52.934;5.884;2023-07-13T03:46:43;17.60;99.90
56137;DHT22;42008;52.934;5.884;2023-07-13T03:49:09;17.60;99.90
56137;DHT22;42008;52.934;5.884;2023-07-13T03:51:35;18.90;99.90
56137;DHT22;42008;52.934;5.884;2023-07-13T03:54:01;17.60;99.90
56137;DHT22;42008;52.934;5.884;2023-07-13T03:56:28;17.50;99.90
56137;DHT22;42008;52.934;5.884;2023-07-13T03:58:55;17.70;99.90
56137;DHT22;42008;52.934;5.884;2023-07-13T04:01:23;17.50;99.90
56137;DHT22;42008;52.934;5.884;2023-07-13T04:03:48;17.50;99.90
56137;DHT22;42008;52.934;5.884;2023-07-13T04:06:23;17.40;99.90
56137;DHT22;42008;52.934;5.884;2023-07-13T04:08:52;17.60;99.90
56137;DHT22;42008;52.934;5.884;2023-07-13T04:11:19;17.30;99.90
56137;DHT22;42008;52.934;5.884;2023-07-13T04:13:45;18.90;99.90
56137;DHT22;42008;52.934;5.884;2023-07-13T04:16:12;18.90;99.90
56137;DHT22;42008;52.934;5.884;2023-07-13T04:18:38;17.40;99.90
56137;DHT22;42008;52.934;5.884;2023-07-13T04:21:04;17.30;99.90
56137;DHT22;42008;52.934;5.884;2023-07-13T04:23:29;19.10;99.90
56137;DHT22;42008;52.934;5.884;2023-07-13T04:25:55;17.60;99.90
56137;DHT22;42008;52.934;5.884;2023-07-13T04:28:22;17.50;99.90
56137;DHT22;42008;52.934;5.884;2023-07-13T04:30:48;17.70;99.90
56137;DHT22;42008;52.934;5.884;2023-07-13T04:33:14;17.60;99.90
56137;DHT22;42008;52.934;5.884;2023-07-13T04:35:40;17.60;99.90
56137;DHT22;42008;52.934;5.884;2023-07-13T04:38:05;17.60;99.90
56137;DHT22;42008;52.934;5.884;2023-07-13T04:40:32;17.70;99.90
56137;DHT22;42008;52.934;5.884;2023-07-13T04:42:58;18.80;99.90
56137;DHT22;42008;52.934;5.884;2023-07-13T04:45:24;17.70;99.90
56137;DHT22;42008;52.934;5.884;2023-07-13T04:47:50;17.70;99.90
56137;DHT22;42008;52.934;5.884;2023-07-13T04:50:16;19.00;99.90
56137;DHT22;42008;52.934;5.884;2023-07-13T04:52:46;19.20;99.90
56137;DHT22;42008;52.934;5.884;2023-07-13T04:55:12;19.20;99.90
56137;DHT22;42008;52.934;5.884;2023-07-13T04:57:38;17.80;99.90
56137;DHT22;42008;52.934;5.884;2023-07-13T05:00:04;17.70;99.90
56137;DHT22;42008;52.934;5.884;2023-07-13T05:02:30;17.90;99.90
56137;DHT22;42008;52.934;5.884;2023-07-13T05:04:57;19.30;99.90
56137;DHT22;42008;52.934;5.884;2023-07-13T05:07:23;17.90;99.90
56137;DHT22;42008;52.934;5.884;2023-07-13T05:09:48;18.10;99.90
56137;DHT22;42008;52.934;5.884;2023-07-13T05:12:14;19.50;99.90
56137;DHT22;42008;52.934;5.884;2023-07-13T05:14:40;19.30;99.90
56137;DHT22;42008;52.934;5.884;2023-07-13T05:17:05;18.00;99.90
56137;DHT22;42008;52.934;5.884;2023-07-13T05:19:31;17.90;99.90
56137;DHT22;42008;52.934;5.884;2023-07-13T05:21:57;19.70;99.90
56137;DHT22;42008;52.934;5.884;2023-07-13T05:24:23;18.00;99.90
56137;DHT22;42008;52.934;5.884;2023-07-13T05:26:49;18.20;99.90
56137;DHT22;42008;52.934;5.884;2023-07-13T05:29:15;19.50;99.90
56137;DHT22;42008;52.934;5.884;2023-07-13T05:31:41;18.30;99.90
56137;DHT22;42008;52.934;5.884;2023-07-13T05:34:07;18.10;99.90
56137;DHT22;42008;52.934;5.884;2023-07-13T05:36:32;19.90;99.90
56137;DHT22;42008;52.934;5.884;2023-07-13T05:38:58;19.70;99.90
56137;DHT22;42008;52.934;5.884;2023-07-13T05:41:24;19.50;99.90
56137;DHT22;42008;52.934;5.884;2023-07-13T05:43:49;19.70;99.90
56137;DHT22;42008;52.934;5.884;2023-07-13T05:46:15;19.60;99.90
56137;DHT22;42008;52.934;5.884;2023-07-13T05:48:40;19.70;99.90
56137;DHT22;42008;52.934;5.884;2023-07-13T05:51:06;20.00;99.90
56137;DHT22;42008;52.934;5.884;2023-07-13T05:53:32;19.80;99.90
56137;DHT22;42008;52.934;5.884;2023-07-13T05:55:57;19.80;99.90
56137;DHT22;42008;52.934;5.884;2023-07-13T05:58:23;19.80;99.90
56137;DHT22;42008;52.934;5.884;2023-07-13T06:01:03;20.00;99.90
56137;DHT22;42008;52.934;5.884;2023-07-13T06:03:29;20.30;99.90
56137;DHT22;42008;52.934;5.884;2023-07-13T06:05:55;20.30;99.90
56137;DHT22;42008;52.934;5.884;2023-07-13T06:08:21;20.30;99.90
56137;DHT22;42008;52.934;5.884;2023-07-13T06:10:46;20.30;99.90
56137;DHT22;42008;52.934;5.884;2023-07-13T06:13:12;20.10;99.90
56137;DHT22;42008;52.934;5.884;2023-07-13T06:15:38;20.40;99.90
56137;DHT22;42008;52.934;5.884;2023-07-13T06:18:03;20.30;99.90
56137;DHT22;42008;52.934;5.884;2023-07-13T06:20:29;20.20;99.90
56137;DHT22;42008;52.934;5.884;2023-07-13T06:22:55;20.00;99.90
56137;DHT22;42008;52.934;5.884;2023-07-13T06:25:20;19.90;99.90
56137;DHT22;42008;52.934;5.884;2023-07-13T06:27:46;19.80;99.90
56137;DHT22;42008;52.934;5.884;2023-07-13T06:30:12;19.90;99.90
56137;DHT22;42008;52.934;5.884;2023-07-13T06:32:38;20.50;99.90
56137;DHT22;42008;52.934;5.884;2023-07-13T06:35:04;22.00;99.90
56137;DHT22;42008;52.934;5.884;2023-07-13T06:37:30;20.60;99.90
56137;DHT22;42008;52.934;5.884;2023-07-13T06:39:56;20.80;99.90
56137;DHT22;42008;52.934;5.884;2023-07-13T06:42:21;20.40;99.90
56137;DHT22;42008;52.934;5.884;2023-07-13T06:44:47;20.70;99.90
56137;DHT22;42008;52.934;5.884;2023-07-13T06:47:13;20.40;99.90
56137;DHT22;42008;52.934;5.884;2023-07-13T06:49:38;20.40;99.90
56137;DHT22;42008;52.934;5.884;2023-07-13T06:52:04;21.90;99.90
56137;DHT22;42008;52.934;5.884;2023-07-13T06:54:30;20.60;99.90
56137;DHT22;42008;52.934;5.884;2023-07-13T06:56:56;20.40;99.90
56137;DHT22;42008;52.934;5.884;2023-07-13T06:59:21;20.40;99.90
56137;DHT22;42008;52.934;5.884;2023-07-13T07:01:47;20.30;99.90
56137;DHT22;42008;52.934;5.884;2023-07-13T07:04:12;20.60;99.90
56137;DHT22;42008;52.934;5.884;2023-07-13T07:06:38;20.30;99.90
56137;DHT22;42008;52.934;5.884;2023-07-13T07:09:04;20.40;99.90
56137;DHT22;42008;52.934;5.884;2023-07-13T07:11:29;20.40;99.90
56137;DHT22;42008;52.934;5.884;2023-07-13T07:13:55;20.30;99.90
56137;DHT22;42008;52.934;5.884;2023-07-13T07:16:21;21.80;99.90
56137;DHT22;42008;52.934;5.884;2023-07-13T07:18:47;20.40;99.90
56137;DHT22;42008;52.934;5.884;2023-07-13T07:21:13;20.10;99.90
56137;DHT22;42008;52.934;5.884;2023-07-13T07:23:39;20.40;99.90
56137;DHT22;42008;52.934;5.884;2023-07-13T07:26:05;20.40;99.90
56137;DHT22;42008;52.934;5.884;2023-07-13T07:28:34;20.00;99.90
56137;DHT22;42008;52.934;5.884;2023-07-13T07:30:59;20.30;99.90
56137;DHT22;42008;52.934;5.884;2023-07-13T07:33:25;20.30;99.90
56137;DHT22;42008;52.934;5.884;2023-07-13T07:35:52;21.20;99.90
56137;DHT22;42008;52.934;5.884;2023-07-13T07:38:17;20.20;99.90
56137;DHT22;42008;52.934;5.884;2023-07-13T07:40:43;20.10;99.90
56137;DHT22;42008;52.934;5.884;2023-07-13T07:43:11;20.20;99.90
56137;DHT22;42008;52.934;5.884;2023-07-13T07:45:38;20.10;99.90
56137;DHT22;42008;52.934;5.884;2023-07-13T07:48:04;20.50;99.90
56137;DHT22;42008;52.934;5.884;2023-07-13T07:50:31;20.30;99.90
56137;DHT22;42008;52.934;5.884;2023-07-13T07:52:57;21.70;99.90
56137;DHT22;42008;52.934;5.884;2023-07-13T07:55:24;20.50;99.90
56137;DHT22;42008;52.934;5.884;2023-07-13T07:57:51;20.60;96.20
56137;DHT22;42008;52.934;5.884;2023-07-13T08:00:17;20.20;39.50
56137;DHT22;42008;52.934;5.884;2023-07-13T08:02:43;20.20;59.60
56137;DHT22;42008;52.934;5.884;2023-07-13T08:05:09;20.10;76.60
56137;DHT22;42008;52.934;5.884;2023-07-13T08:07:36;20.10;1.00
56137;DHT22;42008;52.934;5.884;2023-07-13T08:10:03;20.30;99.90
56137;DHT22;42008;52.934;5.884;2023-07-13T08:12:29;20.60;1.00
56137;DHT22;42008;52.934;5.884;2023-07-13T08:14:55;20.20;99.90
56137;DHT22;42008;52.934;5.884;2023-07-13T08:17:23;20.40;1.00
56137;DHT22;42008;52.934;5.884;2023-07-13T08:19:50;20.40;1.00
56137;DHT22;42008;52.934;5.884;2023-07-13T08:22:15;20.60;1.00
56137;DHT22;42008;52.934;5.884;2023-07-13T08:24:41;20.30;1.00
56137;DHT22;42008;52.934;5.884;2023-07-13T08:27:13;20.80;5.70
56137;DHT22;42008;52.934;5.884;2023-07-13T08:29:39;22.20;99.90
56137;DHT22;42008;52.934;5.884;2023-07-13T08:32:06;22.40;1.00
56137;DHT22;42008;52.934;5.884;2023-07-13T08:34:35;22.40;9.10
56137;DHT22;42008;52.934;5.884;2023-07-13T08:37:01;20.80;1.00
56137;DHT22;42008;52.934;5.884;2023-07-13T08:39:29;20.60;1.00
56137;DHT22;42008;52.934;5.884;2023-07-13T08:42:03;20.50;1.00
56137;DHT22;42008;52.934;5.884;2023-07-13T08:45:04;22.40;1.00
56137;DHT22;42008;52.934;5.884;2023-07-13T08:47:34;22.20;1.00
56137;DHT22;42008;52.934;5.884;2023-07-13T08:50:02;22.40;1.00
56137;DHT22;42008;52.934;5.884;2023-07-13T08:52:39;22.50;1.00
56137;DHT22;42008;52.934;5.884;2023-07-13T08:57:39;22.90;1.00
56137;DHT22;42008;52.934;5.884;2023-07-13T09:00:10;22.60;1.00
56137;DHT22;42008;52.934;5.884;2023-07-13T09:03:19;22.50;1.00
56137;DHT22;42008;52.934;5.884;2023-07-13T09:05:52;22.30;1.00
56137;DHT22;42008;52.934;5.884;2023-07-13T09:13:50;22.70;1.00
56137;DHT22;42008;52.934;5.884;2023-07-13T09:16:21;22.80;1.00
56137;DHT22;42008;52.934;5.884;2023-07-13T09:18:52;22.90;1.00
56137;DHT22;42008;52.934;5.884;2023-07-13T09:21:32;23.20;1.00
56137;DHT22;42008;52.934;5.884;2023-07-13T09:24:14;21.80;1.00
56137;DHT22;42008;52.934;5.884;2023-07-13T09:26:47;22.30;1.00
56137;DHT22;42008;52.934;5.884;2023-07-13T09:29:24;22.60;1.00
56137;DHT22;42008;52.934;5.884;2023-07-13T09:31:55;21.50;1.00
56137;DHT22;42008;52.934;5.884;2023-07-13T09:34:23;22.80;1.00
56137;DHT22;42008;52.934;5.884;2023-07-13T09:36:48;22.20;1.00
56137;DHT22;42008;52.934;5.884;2023-07-13T09:39:29;22.30;1.00
56137;DHT22;42008;52.934;5.884;2023-07-13T09:44:33;20.40;1.00
56137;DHT22;42008;52.934;5.884;2023-07-13T09:46:59;20.40;1.00
56137;DHT22;42008;52.934;5.884;2023-07-13T09:49:33;20.40;1.00
56137;DHT22;42008;52.934;5.884;2023-07-13T09:52:05;20.60;1.00
56137;DHT22;42008;52.934;5.884;2023-07-13T09:54:34;21.80;1.00
56137;DHT22;42008;52.934;5.884;2023-07-13T09:57:01;21.90;1.00
56137;DHT22;42008;52.934;5.884;2023-07-13T09:59:32;20.60;1.00
56137;DHT22;42008;52.934;5.884;2023-07-13T10:01:58;21.90;1.00
56137;DHT22;42008;52.934;5.884;2023-07-13T10:04:31;20.80;1.00
56137;DHT22;42008;52.934;5.884;2023-07-13T10:07:08;22.50;1.00
56137;DHT22;42008;52.934;5.884;2023-07-13T10:09:34;20.70;1.00
56137;DHT22;42008;52.934;5.884;2023-07-13T10:12:00;22.20;1.00
56137;DHT22;42008;52.934;5.884;2023-07-13T10:14:27;20.50;1.00
56137;DHT22;42008;52.934;5.884;2023-07-13T10:17:00;22.90;1.00
56137;DHT22;42008;52.934;5.884;2023-07-13T10:19:34;23.00;1.00
56137;DHT22;42008;52.934;5.884;2023-07-13T10:22:02;23.30;1.00
56137;DHT22;42008;52.934;5.884;2023-07-13T10:24:37;23.20;1.00
56137;DHT22;42008;52.934;5.884;2023-07-13T10:29:34;23.10;1.00
56137;DHT22;42008;52.934;5.884;2023-07-13T10:32:01;22.90;1.00
56137;DHT22;42008;52.934;5.884;2023-07-13T10:34:27;22.70;1.00
56137;DHT22;42008;52.934;5.884;2023-07-13T10:36:54;22.40;1.00
56137;DHT22;42008;52.934;5.884;2023-07-13T10:39:23;22.30;1.00
56137;DHT22;42008;52.934;5.884;2023-07-13T10:41:57;22.90;1.00
56137;DHT22;42008;52.934;5.884;2023-07-13T10:44:33;22.50;1.00
56137;DHT22;42008;52.934;5.884;2023-07-13T10:47:02;22.40;1.00
56137;DHT22;42008;52.934;5.884;2023-07-13T10:49:31;22.80;1.00
56137;DHT22;42008;52.934;5.884;2023-07-13T10:51:58;22.90;1.00
56137;DHT22;42008;52.934;5.884;2023-07-13T10:54:33;22.50;1.00
56137;DHT22;42008;52.934;5.884;2023-07-13T10:57:20;22.80;1.00
56137;DHT22;42008;52.934;5.884;2023-07-13T10:59:49;22.80;1.00
56137;DHT22;42008;52.934;5.884;2023-07-13T11:02:25;22.70;1.00
56137;DHT22;42008;52.934;5.884;2023-07-13T11:04:53;22.50;1.00
56137;DHT22;42008;52.934;5.884;2023-07-13T11:07:28;23.00;1.00
56137;DHT22;42008;52.934;5.884;2023-07-13T11:09:56;22.70;1.00
56137;DHT22;42008;52.934;5.884;2023-07-13T11:17:25;22.90;1.00
56137;DHT22;42008;52.934;5.884;2023-07-13T11:20:30;23.30;1.00
56137;DHT22;42008;52.934;5.884;2023-07-13T11:25:37;23.30;1.00
56137;DHT22;42008;52.934;5.884;2023-07-13T11:28:05;23.20;1.00
56137;DHT22;42008;52.934;5.884;2023-07-13T11:30:38;22.90;1.00
56137;DHT22;42008;52.934;5.884;2023-07-13T11:33:20;22.80;1.00
56137;DHT22;42008;52.934;5.884;2023-07-13T11:38:24;22.70;1.00
56137;DHT22;42008;52.934;5.884;2023-07-13T11:40:54;22.90;1.00
56137;DHT22;42008;52.934;5.884;2023-07-13T11:43:21;23.10;1.00
56137;DHT22;42008;52.934;5.884;2023-07-13T11:45:49;23.30;1.00
56137;DHT22;42008;52.934;5.884;2023-07-13T11:48:27;23.10;1.00
56137;DHT22;42008;52.934;5.884;2023-07-13T11:50:57;23.10;1.00
56137;DHT22;42008;52.934;5.884;2023-07-13T11:53:27;23.40;1.00
56137;DHT22;42008;52.934;5.884;2023-07-13T11:55:54;23.40;1.00
56137;DHT22;42008;52.934;5.884;2023-07-13T11:58:23;23.10;1.00
56137;DHT22;42008;52.934;5.884;2023-07-13T12:00:50;23.60;1.00
56137;DHT22;42008;52.934;5.884;2023-07-13T12:03:22;23.60;1.00
56137;DHT22;42008;52.934;5.884;2023-07-13T12:06:32;23.50;1.00
56137;DHT22;42008;52.934;5.884;2023-07-13T12:09:03;23.40;1.00
56137;DHT22;42008;52.934;5.884;2023-07-13T12:11:41;23.10;1.00
56137;DHT22;42008;52.934;5.884;2023-07-13T12:14:15;23.30;1.00
56137;DHT22;42008;52.934;5.884;2023-07-13T12:16:42;24.90;1.00
56137;DHT22;42008;52.934;5.884;2023-07-13T12:19:20;23.40;1.00
56137;DHT22;42008;52.934;5.884;2023-07-13T12:21:47;23.60;1.00
56137;DHT22;42008;52.934;5.884;2023-07-13T12:24:20;23.30;1.00
56137;DHT22;42008;52.934;5.884;2023-07-13T12:27:00;22.90;1.00
56137;DHT22;42008;52.934;5.884;2023-07-13T12:29:27;23.00;1.00
56137;DHT22;42008;52.934;5.884;2023-07-13T12:31:53;22.70;1.00
56137;DHT22;42008;52.934;5.884;2023-07-13T12:34:24;22.10;1.00
56137;DHT22;42008;52.934;5.884;2023-07-13T12:36:56;22.20;1.00
56137;DHT22;42008;52.934;5.884;2023-07-13T12:39:22;22.50;1.00
56137;DHT22;42008;52.934;5.884;2023-07-13T12:41:50;22.60;1.00
56137;DHT22;42008;52.934;5.884;2023-07-13T12:44:18;23.00;1.00
56137;DHT22;42008;52.934;5.884;2023-07-13T12:46:54;23.10;1.00
56137;DHT22;42008;52.934;5.884;2023-07-13T12:49:24;23.40;1.00
56137;DHT22;42008;52.934;5.884;2023-07-13T12:51:50;23.20;1.00
56137;DHT22;42008;52.934;5.884;2023-07-13T12:54:21;23.20;1.00
56137;DHT22;42008;52.934;5.884;2023-07-13T12:56:50;23.40;1.00
56137;DHT22;42008;52.934;5.884;2023-07-13T12:59:21;23.10;1.00
56137;DHT22;42008;52.934;5.884;2023-07-13T13:01:48;23.10;1.00
56137;DHT22;42008;52.934;5.884;2023-07-13T13:04:15;23.20;1.00
56137;DHT22;42008;52.934;5.884;2023-07-13T13:06:41;23.30;1.00
56137;DHT22;42008;52.934;5.884;2023-07-13T13:09:17;23.60;1.00
56137;DHT22;42008;52.934;5.884;2023-07-13T13:11:44;23.30;1.00
56137;DHT22;42008;52.934;5.884;2023-07-13T13:14:09;23.30;1.00
56137;DHT22;42008;52.934;5.884;2023-07-13T13:16:47;23.30;1.00
56137;DHT22;42008;52.934;5.884;2023-07-13T13:19:25;23.10;1.00
56137;DHT22;42008;52.934;5.884;2023-07-13T13:21:53;23.50;1.00
56137;DHT22;42008;52.934;5.884;2023-07-13T13:24:23;23.50;1.00
56137;DHT22;42008;52.934;5.884;2023-07-13T13:26:53;23.30;1.00
56137;DHT22;42008;52.934;5.884;2023-07-13T13:29:22;23.30;1.00
56137;DHT22;42008;52.934;5.884;2023-07-13T13:31:52;23.30;1.00
56137;DHT22;42008;52.934;5.884;2023-07-13T13:34:18;23.60;1.00
56137;DHT22;42008;52.934;5.884;2023-07-13T13:36:47;23.80;1.00
56137;DHT22;42008;52.934;5.884;2023-07-13T13:39:20;23.50;1.00
56137;DHT22;42008;52.934;5.884;2023-07-13T13:41:47;23.30;1.00
56137;DHT22;42008;52.934;5.884;2023-07-13T13:44:17;23.40;1.00
56137;DHT22;42008;52.934;5.884;2023-07-13T13:46:48;22.90;1.00
56137;DHT22;42008;52.934;5.884;2023-07-13T13:49:17;22.50;1.00
56137;DHT22;42008;52.934;5.884;2023-07-13T13:51:46;22.70;1.00
56137;DHT22;42008;52.934;5.884;2023-07-13T13:54:16;23.20;1.00
56137;DHT22;42008;52.934;5.884;2023-07-13T13:56:47;23.00;1.00
56137;DHT22;42008;52.934;5.884;2023-07-13T13:59:13;23.20;1.00
56137;DHT22;42008;52.934;5.884;2023-07-13T14:01:41;23.10;1.00
56137;DHT22;42008;52.934;5.884;2023-07-13T14:04:15;23.10;1.00
56137;DHT22;42008;52.934;5.884;2023-07-13T14:06:45;23.30;1.00
56137;DHT22;42008;52.934;5.884;2023-07-13T14:09:12;24.90;1.00
56137;DHT22;42008;52.934;5.884;2023-07-13T14:11:42;22.80;1.00
56137;DHT22;42008;52.934;5.884;2023-07-13T14:14:22;23.00;1.00
56137;DHT22;42008;52.934;5.884;2023-07-13T14:16:49;23.30;1.00
56137;DHT22;42008;52.934;5.884;2023-07-13T14:19:18;22.40;1.00
56137;DHT22;42008;52.934;5.884;2023-07-13T14:21:44;22.40;1.00
56137;DHT22;42008;52.934;5.884;2023-07-13T14:24:11;22.90;1.00
56137;DHT22;42008;52.934;5.884;2023-07-13T14:26:39;23.50;1.00
56137;DHT22;42008;52.934;5.884;2023-07-13T14:29:13;23.70;1.00
56137;DHT22;42008;52.934;5.884;2023-07-13T14:31:40;23.70;1.00
56137;DHT22;42008;52.934;5.884;2023-07-13T14:34:08;23.40;1.00
56137;DHT22;42008;52.934;5.884;2023-07-13T14:36:46;23.80;1.00
56137;DHT22;42008;52.934;5.884;2023-07-13T14:39:17;25.20;1.00
56137;DHT22;42008;52.934;5.884;2023-07-13T14:41:44;23.40;1.00
56137;DHT22;42008;52.934;5.884;2023-07-13T14:44:14;25.40;1.00
56137;DHT22;42008;52.934;5.884;2023-07-13T14:46:41;25.40;1.00
56137;DHT22;42008;52.934;5.884;2023-07-13T14:51:58;25.10;1.00
56137;DHT22;42008;52.934;5.884;2023-07-13T14:54:24;23.90;1.00
56137;DHT22;42008;52.934;5.884;2023-07-13T14:56:50;24.00;1.00
56137;DHT22;42008;52.934;5.884;2023-07-13T14:59:16;23.90;1.00
56137;DHT22;42008;52.934;5.884;2023-07-13T15:01:45;25.50;1.00
56137;DHT22;42008;52.934;5.884;2023-07-13T15:04:15;25.10;1.00
56137;DHT22;42008;52.934;5.884;2023-07-13T15:06:58;23.50;1.00
56137;DHT22;42008;52.934;5.884;2023-07-13T15:09:25;25.50;1.00
56137;DHT22;42008;52.934;5.884;2023-07-13T15:11:55;24.00;1.00
56137;DHT22;42008;52.934;5.884;2023-07-13T15:14:21;23.90;1.00
56137;DHT22;42008;52.934;5.884;2023-07-13T15:16:49;23.90;1.00
56137;DHT22;42008;52.934;5.884;2023-07-13T15:19:17;24.40;1.00
56137;DHT22;42008;52.934;5.884;2023-07-13T15:21:44;25.70;1.00
56137;DHT22;42008;52.934;5.884;2023-07-13T15:24:12;25.60;1.00
56137;DHT22;42008;52.934;5.884;2023-07-13T15:26:48;25.60;1.00
56137;DHT22;42008;52.934;5.884;2023-07-13T15:29:15;23.80;1.00
56137;DHT22;42008;52.934;5.884;2023-07-13T15:31:41;24.20;1.00
56137;DHT22;42008;52.934;5.884;2023-07-13T15:34:15;25.00;1.00
56137;DHT22;42008;52.934;5.884;2023-07-13T15:36:42;26.10;1.00
56137;DHT22;42008;52.934;5.884;2023-07-13T15:39:15;24.00;1.00
56137;DHT22;42008;52.934;5.884;2023-07-13T15:41:43;24.30;1.00
56137;DHT22;42008;52.934;5.884;2023-07-13T15:44:23;26.20;1.00
56137;DHT22;42008;52.934;5.884;2023-07-13T15:46:50;25.50;1.00
56137;DHT22;42008;52.934;5.884;2023-07-13T15:49:16;24.80;1.00
56137;DHT22;42008;52.934;5.884;2023-07-13T15:51:41;25.60;99.90
56137;DHT22;42008;52.934;5.884;2023-07-13T15:54:12;25.70;1.00
56137;DHT22;42008;52.934;5.884;2023-07-13T15:56:38;26.70;99.90
56137;DHT22;42008;52.934;5.884;2023-07-13T15:59:09;26.40;1.00
56137;DHT22;42008;52.934;5.884;2023-07-13T16:01:41;26.20;1.00
56137;DHT22;42008;52.934;5.884;2023-07-13T16:04:08;26.60;99.90
56137;DHT22;42008;52.934;5.884;2023-07-13T16:06:39;26.10;1.00
56137;DHT22;42008;52.934;5.884;2023-07-13T16:09:06;26.80;1.00
56137;DHT22;42008;52.934;5.884;2023-07-13T16:11:35;26.30;1.00
56137;DHT22;42008;52.934;5.884;2023-07-13T16:14:01;26.30;1.00